createdAt,value
2023-04-29T00:00:38.911Z,25.41
2023-04-29T00:01:38.900Z,25.46
2023-04-29T00:02:39.021Z,25.41
2023-04-29T00:03:39.110Z,25.46
2023-04-29T00:04:39.245Z,25.51
2023-04-29T00:05:38.972Z,25.51
2023-04-29T00:06:38.833Z,25.62
2023-04-29T00:07:38.818Z,25.46
2023-04-29T00:08:38.813Z,25.57
2023-04-29T00:09:38.865Z,25.51
2023-04-29T00:10:38.779Z,25.35
2023-04-29T00:11:38.763Z,25.24
2023-04-29T00:12:38.757Z,25.41
2023-04-29T00:13:39.141Z,25.51
2023-04-29T00:14:38.761Z,25.46
2023-04-29T00:15:38.723Z,25.41
2023-04-29T00:16:38.792Z,25.62
2023-04-29T00:17:38.692Z,25.51
2023-04-29T00:18:38.689Z,25.46
2023-04-29T00:19:38.658Z,25.41
2023-04-29T00:20:38.666Z,25.57
2023-04-29T00:21:38.625Z,25.51
2023-04-29T00:22:38.612Z,25.46
2023-04-29T00:23:38.613Z,25.24
2023-04-29T00:24:38.590Z,25.35
2023-04-29T00:25:38.575Z,25.41
2023-04-29T00:26:38.564Z,25.51
2023-04-29T00:27:38.547Z,25.94
2023-04-29T00:28:38.531Z,25.41
2023-04-29T00:29:38.539Z,25.51
2023-04-29T00:30:38.612Z,25.41
2023-04-29T00:31:38.551Z,25.51
2023-04-29T00:32:38.516Z,25.46
2023-04-29T00:33:38.491Z,25.46
2023-04-29T00:34:38.461Z,25.46
2023-04-29T00:35:38.453Z,25.41
2023-04-29T00:36:38.452Z,25.51
2023-04-29T00:37:38.421Z,25.03
2023-04-29T00:38:38.401Z,25.51
2023-04-29T00:39:38.388Z,25.57
2023-04-29T00:40:38.374Z,25.46
2023-04-29T00:41:38.357Z,25.41
2023-04-29T00:42:38.361Z,25.30
2023-04-29T00:43:38.352Z,25.46
2023-04-29T00:44:38.317Z,25.41
2023-04-29T00:45:38.320Z,25.46
2023-04-29T00:46:38.409Z,25.14
2023-04-29T00:47:38.300Z,25.41
2023-04-29T00:48:38.273Z,25.57
2023-04-29T00:49:38.270Z,25.67
2023-04-29T00:50:38.245Z,25.51
2023-04-29T00:51:38.229Z,25.46
2023-04-29T00:52:38.246Z,25.46
2023-04-29T00:53:38.202Z,25.67
2023-04-29T00:54:38.194Z,25.46
2023-04-29T00:55:38.170Z,25.41
2023-04-29T00:56:38.158Z,25.46
2023-04-29T00:57:38.145Z,25.57
2023-04-29T00:58:38.133Z,25.41
2023-04-29T00:59:38.120Z,25.62
2023-04-29T01:00:38.113Z,25.46
2023-04-29T01:01:38.139Z,24.98
2023-04-29T01:02:38.172Z,25.46
2023-04-29T01:03:38.230Z,25.46
2023-04-29T01:04:38.090Z,25.51
2023-04-29T01:05:38.042Z,25.46
2023-04-29T01:06:38.036Z,25.62
2023-04-29T01:07:38.019Z,25.14
2023-04-29T01:08:38.025Z,25.03
2023-04-29T01:09:37.987Z,25.51
2023-04-29T01:10:38.029Z,25.41
2023-04-29T01:11:37.958Z,25.46
2023-04-29T01:12:37.951Z,25.46
2023-04-29T01:13:37.933Z,25.46
2023-04-29T01:14:37.934Z,25.46
2023-04-29T01:15:37.944Z,25.41
2023-04-29T01:16:38.013Z,25.14
2023-04-29T01:17:37.988Z,25.51
2023-04-29T01:18:37.888Z,25.57
2023-04-29T01:19:37.853Z,25.46
2023-04-29T01:20:37.861Z,25.03
2023-04-29T01:21:37.821Z,25.51
2023-04-29T01:22:37.806Z,25.14
2023-04-29T01:23:37.795Z,25.30
2023-04-29T01:24:37.814Z,25.46
2023-04-29T01:25:37.780Z,25.19
2023-04-29T01:26:37.759Z,25.62
2023-04-29T01:27:37.741Z,25.51
2023-04-29T01:28:37.733Z,25.73
2023-04-29T01:29:37.735Z,25.62
2023-04-29T01:30:37.705Z,25.51
2023-04-29T01:31:37.698Z,25.08
2023-04-29T01:32:37.757Z,25.08
2023-04-29T01:33:37.659Z,25.03
2023-04-29T01:34:37.653Z,25.51
2023-04-29T01:35:37.638Z,25.46
2023-04-29T01:36:37.626Z,25.03
2023-04-29T01:37:37.630Z,25.46
2023-04-29T01:38:37.612Z,25.51
2023-04-29T01:39:37.595Z,24.98
2023-04-29T01:40:37.600Z,25.46
2023-04-29T01:41:37.566Z,25.14
2023-04-29T01:42:37.568Z,25.03
2023-04-29T01:43:37.535Z,25.14
2023-04-29T01:44:37.521Z,25.30
2023-04-29T01:45:37.502Z,25.51
2023-04-29T01:46:37.546Z,25.62
2023-04-29T01:47:37.494Z,25.51
2023-04-29T01:48:37.470Z,25.41
2023-04-29T01:49:37.476Z,25.51
2023-04-29T01:50:37.447Z,25.41
2023-04-29T01:51:37.428Z,25.08
2023-04-29T01:52:37.414Z,25.57
2023-04-29T01:53:37.412Z,25.51
2023-04-29T01:54:37.393Z,25.51
2023-04-29T01:55:37.375Z,25.46
2023-04-29T01:56:37.390Z,25.08
2023-04-29T01:57:37.349Z,25.46
2023-04-29T01:58:37.346Z,25.08
2023-04-29T01:59:37.331Z,25.24
2023-04-29T02:00:37.315Z,25.62
2023-04-29T02:01:37.286Z,25.51
2023-04-29T02:02:37.411Z,24.98
2023-04-29T02:03:37.441Z,25.46
2023-04-29T02:04:37.340Z,25.14
2023-04-29T02:05:37.254Z,25.14
2023-04-29T02:06:37.220Z,25.03
2023-04-29T02:07:37.208Z,25.08
2023-04-29T02:08:37.200Z,25.03
2023-04-29T02:09:37.194Z,25.30
2023-04-29T02:10:37.181Z,25.46
2023-04-29T02:11:37.163Z,25.08
2023-04-29T02:12:37.172Z,25.51
2023-04-29T02:13:37.130Z,25.14
2023-04-29T02:14:38.000Z,25.03
2023-04-29T02:15:37.106Z,25.03
2023-04-29T02:16:37.133Z,25.14
2023-04-29T02:17:37.118Z,25.03
2023-04-29T02:18:37.066Z,25.46
2023-04-29T02:19:37.051Z,25.19
2023-04-29T02:20:37.029Z,25.08
2023-04-29T02:21:37.023Z,25.08
2023-04-29T02:22:37.030Z,25.67
2023-04-29T02:23:37.003Z,25.19
2023-04-29T02:24:36.984Z,25.30
2023-04-29T02:25:36.966Z,25.08
2023-04-29T02:26:36.963Z,25.46
2023-04-29T02:27:36.943Z,25.03
2023-04-29T02:28:36.962Z,25.08
2023-04-29T02:29:36.916Z,25.03
2023-04-29T02:30:36.904Z,25.03
2023-04-29T02:31:36.920Z,25.03
2023-04-29T02:32:36.896Z,25.08
2023-04-29T02:33:36.870Z,24.98
2023-04-29T02:34:36.861Z,25.08
2023-04-29T02:35:36.842Z,25.08
2023-04-29T02:36:36.834Z,25.08
2023-04-29T02:37:36.812Z,25.46
2023-04-29T02:38:36.802Z,25.08
2023-04-29T02:39:36.781Z,25.08
2023-04-29T02:40:36.771Z,24.98
2023-04-29T02:41:36.754Z,25.03
2023-04-29T02:42:36.748Z,25.03
2023-04-29T02:43:36.732Z,25.08
2023-04-29T02:44:36.765Z,25.08
2023-04-29T02:45:36.720Z,25.14
2023-04-29T02:46:36.694Z,25.19
2023-04-29T02:47:36.755Z,25.24
2023-04-29T02:48:36.668Z,25.14
2023-04-29T02:49:36.660Z,25.03
2023-04-29T02:50:36.633Z,25.03
2023-04-29T02:51:36.625Z,25.46
2023-04-29T02:52:36.614Z,25.03
2023-04-29T02:53:36.601Z,25.08
2023-04-29T02:54:36.585Z,25.03
2023-04-29T02:55:36.594Z,25.08
2023-04-29T02:56:36.609Z,25.14
2023-04-29T02:57:36.548Z,25.08
2023-04-29T02:58:36.729Z,25.08
2023-04-29T02:59:36.518Z,25.08
2023-04-29T03:00:36.635Z,25.08
2023-04-29T03:01:36.530Z,25.03
2023-04-29T03:02:36.672Z,25.24
2023-04-29T03:03:36.588Z,25.08
2023-04-29T03:04:36.659Z,25.03
2023-04-29T03:05:36.442Z,25.19
2023-04-29T03:06:36.424Z,25.08
2023-04-29T03:07:36.415Z,25.19
2023-04-29T03:08:36.648Z,25.14
2023-04-29T03:09:36.390Z,25.14
2023-04-29T03:10:36.415Z,25.08
2023-04-29T03:11:36.364Z,25.08
2023-04-29T03:12:36.350Z,25.67
2023-04-29T03:13:36.580Z,25.14
2023-04-29T03:14:36.330Z,25.14
2023-04-29T03:15:36.608Z,25.46
2023-04-29T03:16:36.356Z,25.51
2023-04-29T03:17:36.937Z,25.08
2023-04-29T03:18:36.269Z,25.14
2023-04-29T03:19:36.251Z,25.14
2023-04-29T03:20:36.240Z,25.19
2023-04-29T03:21:36.230Z,25.08
2023-04-29T03:22:36.221Z,25.08
2023-04-29T03:23:36.197Z,25.24
2023-04-29T03:24:36.193Z,25.14
2023-04-29T03:25:36.162Z,25.14
2023-04-29T03:26:36.159Z,25.19
2023-04-29T03:27:36.146Z,25.19
2023-04-29T03:28:36.137Z,25.03
2023-04-29T03:29:36.141Z,25.08
2023-04-29T03:30:36.106Z,24.98
2023-04-29T03:31:36.124Z,25.14
2023-04-29T03:32:36.115Z,25.08
2023-04-29T03:33:36.062Z,25.41
2023-04-29T03:34:36.072Z,25.08
2023-04-29T03:35:36.031Z,25.03
2023-04-29T03:36:36.023Z,25.67
2023-04-29T03:37:36.053Z,25.14
2023-04-29T03:38:35.984Z,25.14
2023-04-29T03:39:35.995Z,25.08
2023-04-29T03:40:35.963Z,25.14
2023-04-29T03:41:35.971Z,25.14
2023-04-29T03:42:35.937Z,25.57
2023-04-29T03:43:35.920Z,25.03
2023-04-29T03:44:35.910Z,25.62
2023-04-29T03:45:35.896Z,25.14
2023-04-29T03:46:35.980Z,25.08
2023-04-29T03:47:35.925Z,25.14
2023-04-29T03:48:35.885Z,25.08
2023-04-29T03:49:35.846Z,25.08
2023-04-29T03:50:35.827Z,25.51
2023-04-29T03:51:35.817Z,25.30
2023-04-29T03:52:35.804Z,25.03
2023-04-29T03:53:35.800Z,24.92
2023-04-29T03:54:35.778Z,25.46
2023-04-29T03:55:35.766Z,24.98
2023-04-29T03:56:35.748Z,25.46
2023-04-29T03:57:35.735Z,25.08
2023-04-29T03:58:35.722Z,25.14
2023-04-29T03:59:35.712Z,24.92
2023-04-29T04:00:35.904Z,25.19
2023-04-29T04:01:35.707Z,24.92
2023-04-29T04:02:35.764Z,25.19
2023-04-29T04:03:35.875Z,25.03
2023-04-29T04:04:35.857Z,25.14
2023-04-29T04:05:35.623Z,24.92
2023-04-29T04:06:35.611Z,25.03
2023-04-29T04:07:35.606Z,25.19
2023-04-29T04:08:35.586Z,25.14
2023-04-29T04:09:35.672Z,25.08
2023-04-29T04:10:35.576Z,25.19
2023-04-29T04:11:35.548Z,25.08
2023-04-29T04:12:35.536Z,25.08
2023-04-29T04:13:35.519Z,25.03
2023-04-29T04:14:35.507Z,25.08
2023-04-29T04:15:35.492Z,25.19
2023-04-29T04:16:35.527Z,25.08
2023-04-29T04:17:35.483Z,25.35
2023-04-29T04:18:35.473Z,25.08
2023-04-29T04:19:35.437Z,25.08
2023-04-29T04:20:35.461Z,25.03
2023-04-29T04:21:35.422Z,25.08
2023-04-29T04:22:35.399Z,25.24
2023-04-29T04:23:35.391Z,25.08
2023-04-29T04:24:35.580Z,25.08
2023-04-29T04:25:35.361Z,25.08
2023-04-29T04:26:35.389Z,25.03
2023-04-29T04:27:35.329Z,25.08
2023-04-29T04:28:35.352Z,25.03
2023-04-29T04:29:35.307Z,25.14
2023-04-29T04:30:35.286Z,25.51
2023-04-29T04:31:35.302Z,25.19
2023-04-29T04:32:35.295Z,25.08
2023-04-29T04:33:35.258Z,25.08
2023-04-29T04:34:35.249Z,25.08
2023-04-29T04:35:35.230Z,25.08
2023-04-29T04:36:35.239Z,25.14
2023-04-29T04:37:35.201Z,25.08
2023-04-29T04:38:35.195Z,25.03
2023-04-29T04:39:35.166Z,25.14
2023-04-29T04:40:35.159Z,25.03
2023-04-29T04:41:35.148Z,25.03
2023-04-29T04:42:35.136Z,25.08
2023-04-29T04:43:35.121Z,25.08
2023-04-29T04:44:35.107Z,25.08
2023-04-29T04:45:35.198Z,24.76
2023-04-29T04:46:35.349Z,25.08
2023-04-29T04:47:35.190Z,25.03
2023-04-29T04:48:35.058Z,25.24
2023-04-29T04:49:35.060Z,25.03
2023-04-29T04:50:35.030Z,25.19
2023-04-29T04:51:35.017Z,24.92
2023-04-29T04:52:35.023Z,25.94
2023-04-29T04:53:34.990Z,25.14
2023-04-29T04:54:34.978Z,25.08
2023-04-29T04:55:34.958Z,25.19
2023-04-29T04:56:34.952Z,25.19
2023-04-29T04:57:34.936Z,25.03
2023-04-29T04:58:34.922Z,25.08
2023-04-29T04:59:34.905Z,25.46
2023-04-29T05:00:34.892Z,25.08
2023-04-29T05:01:35.003Z,25.14
2023-04-29T05:02:35.054Z,25.14
2023-04-29T05:03:34.936Z,25.08
2023-04-29T05:04:34.841Z,25.14
2023-04-29T05:05:34.823Z,25.08
2023-04-29T05:06:34.833Z,25.08
2023-04-29T05:07:34.798Z,25.30
2023-04-29T05:08:34.810Z,25.14
2023-04-29T05:09:34.772Z,25.19
2023-04-29T05:10:34.766Z,24.98
2023-04-29T05:11:34.744Z,25.14
2023-04-29T05:12:34.732Z,25.08
2023-04-29T05:13:34.723Z,25.24
2023-04-29T05:14:34.715Z,25.03
2023-04-29T05:15:34.687Z,25.03
2023-04-29T05:16:34.762Z,25.14
2023-04-29T05:17:34.678Z,25.14
2023-04-29T05:18:34.652Z,25.03
2023-04-29T05:19:34.639Z,25.03
2023-04-29T05:20:34.931Z,25.08
2023-04-29T05:21:34.613Z,25.14
2023-04-29T05:22:34.608Z,25.08
2023-04-29T05:23:34.586Z,24.92
2023-04-29T05:24:34.623Z,25.35
2023-04-29T05:25:34.560Z,25.08
2023-04-29T05:26:34.555Z,25.14
2023-04-29T05:27:34.529Z,25.14
2023-04-29T05:28:34.519Z,25.46
2023-04-29T05:29:34.513Z,25.03
2023-04-29T05:30:34.549Z,25.08
2023-04-29T05:31:34.481Z,25.03
2023-04-29T05:32:34.494Z,25.14
2023-04-29T05:33:34.455Z,25.03
2023-04-29T05:34:34.444Z,25.08
2023-04-29T05:35:34.433Z,25.08
2023-04-29T05:36:34.416Z,25.24
2023-04-29T05:37:34.395Z,25.19
2023-04-29T05:38:34.390Z,25.46
2023-04-29T05:39:34.372Z,25.14
2023-04-29T05:40:34.381Z,25.24
2023-04-29T05:41:34.340Z,25.08
2023-04-29T05:42:34.338Z,25.14
2023-04-29T05:43:34.345Z,25.03
2023-04-29T05:44:34.320Z,24.98
2023-04-29T05:45:34.289Z,25.08
2023-04-29T05:46:34.344Z,25.14
2023-04-29T05:47:34.294Z,25.14
2023-04-29T05:48:34.251Z,25.08
2023-04-29T05:49:34.241Z,25.14
2023-04-29T05:50:34.230Z,25.14
2023-04-29T05:51:34.213Z,25.03
2023-04-29T05:52:34.202Z,24.92
2023-04-29T05:53:34.189Z,25.08
2023-04-29T05:54:34.174Z,24.98
2023-04-29T05:55:34.167Z,25.08
2023-04-29T05:56:34.328Z,25.08
2023-04-29T05:57:34.146Z,25.08
2023-04-29T05:58:34.125Z,25.08
2023-04-29T05:59:34.107Z,25.08
2023-04-29T06:00:34.125Z,25.03
2023-04-29T06:01:34.099Z,25.08
2023-04-29T06:02:37.486Z,25.14
2023-04-29T06:03:34.262Z,25.08
2023-04-29T06:04:34.595Z,25.03
2023-04-29T06:05:34.569Z,25.03
2023-04-29T06:06:34.220Z,25.14
2023-04-29T06:07:34.099Z,25.08
2023-04-29T06:08:33.993Z,28.14
2023-04-29T06:09:33.973Z,47.48
2023-04-29T06:10:34.064Z,47.86
2023-04-29T06:11:33.943Z,45.17
2023-04-29T06:12:33.952Z,45.12
2023-04-29T06:13:33.925Z,42.59
2023-04-29T06:14:33.959Z,40.18
2023-04-29T06:15:33.891Z,40.23
2023-04-29T06:16:34.293Z,39.05
2023-04-29T06:17:33.889Z,37.65
2023-04-29T06:18:33.855Z,37.60
2023-04-29T06:19:33.841Z,37.87
2023-04-29T06:20:34.961Z,37.76
2023-04-29T06:21:34.066Z,37.92
2023-04-29T06:22:33.806Z,36.79
2023-04-29T06:23:34.252Z,36.74
2023-04-29T06:24:33.776Z,36.63
2023-04-29T06:25:33.900Z,36.63
2023-04-29T06:26:33.751Z,35.77
2023-04-29T06:27:33.727Z,35.66
2023-04-29T06:28:33.738Z,35.72
2023-04-29T06:29:33.711Z,35.66
2023-04-29T06:30:33.696Z,35.66
2023-04-29T06:31:33.686Z,34.48
2023-04-29T06:32:33.672Z,34.48
2023-04-29T06:33:33.653Z,34.38
2023-04-29T06:34:33.639Z,34.48
2023-04-29T06:35:33.623Z,34.16
2023-04-29T06:36:33.612Z,34.54
2023-04-29T06:37:35.339Z,34.43
2023-04-29T06:38:33.582Z,34.48
2023-04-29T06:39:33.575Z,34.75
2023-04-29T06:40:33.557Z,33.30
2023-04-29T06:41:33.559Z,33.19
2023-04-29T06:42:33.527Z,33.30
2023-04-29T06:43:33.518Z,33.62
2023-04-29T06:44:33.528Z,33.30
2023-04-29T06:45:33.507Z,33.30
2023-04-29T06:46:33.517Z,33.30
2023-04-29T06:47:33.501Z,32.39
2023-04-29T06:48:33.456Z,32.39
2023-04-29T06:49:33.517Z,33.30
2023-04-29T06:50:33.427Z,32.33
2023-04-29T06:51:33.407Z,32.44
2023-04-29T06:52:33.414Z,32.33
2023-04-29T06:53:33.387Z,32.39
2023-04-29T06:54:33.376Z,32.33
2023-04-29T06:55:33.360Z,32.28
2023-04-29T06:56:33.376Z,32.39
2023-04-29T06:57:33.341Z,32.33
2023-04-29T06:58:33.319Z,32.44
2023-04-29T06:59:33.315Z,32.28
2023-04-29T07:00:33.323Z,32.28
2023-04-29T07:01:33.330Z,31.15
2023-04-29T07:02:33.324Z,31.21
2023-04-29T07:03:33.363Z,31.21
2023-04-29T07:04:33.278Z,31.15
2023-04-29T07:05:33.228Z,31.15
2023-04-29T07:06:33.214Z,31.21
2023-04-29T07:07:33.210Z,31.04
2023-04-29T07:08:33.190Z,31.26
2023-04-29T07:09:33.176Z,31.15
2023-04-29T07:10:33.166Z,31.10
2023-04-29T07:11:33.149Z,31.42
2023-04-29T07:12:33.138Z,30.19
2023-04-29T07:13:33.126Z,30.19
2023-04-29T07:14:33.108Z,31.15
2023-04-29T07:15:33.095Z,30.19
2023-04-29T07:16:33.139Z,30.67
2023-04-29T07:17:33.082Z,30.19
2023-04-29T07:18:33.067Z,30.35
2023-04-29T07:19:33.043Z,30.13
2023-04-29T07:20:33.043Z,30.13
2023-04-29T07:21:33.024Z,30.19
2023-04-29T07:22:33.014Z,30.13
2023-04-29T07:23:33.000Z,30.19
2023-04-29T07:24:32.987Z,30.40
2023-04-29T07:25:33.002Z,30.24
2023-04-29T07:26:32.959Z,30.19
2023-04-29T07:27:32.947Z,30.45
2023-04-29T07:28:32.931Z,29.70
2023-04-29T07:29:32.922Z,29.43
2023-04-29T07:30:32.965Z,29.65
2023-04-29T07:31:33.029Z,29.59
2023-04-29T07:32:32.921Z,29.54
2023-04-29T07:33:32.871Z,29.59
2023-04-29T07:34:32.852Z,29.59
2023-04-29T07:35:32.834Z,30.08
2023-04-29T07:36:32.823Z,29.54
2023-04-29T07:37:32.827Z,29.54
2023-04-29T07:38:32.804Z,29.70
2023-04-29T07:39:32.789Z,29.54
2023-04-29T07:40:32.812Z,29.59
2023-04-29T07:41:32.751Z,30.29
2023-04-29T07:42:32.743Z,42.54
2023-04-29T07:43:32.740Z,45.12
2023-04-29T07:44:32.721Z,42.75
2023-04-29T07:45:32.702Z,42.49
2023-04-29T07:46:32.717Z,40.23
2023-04-29T07:47:32.706Z,40.23
2023-04-29T07:48:32.687Z,40.07
2023-04-29T07:49:32.645Z,40.18
2023-04-29T07:50:32.636Z,38.73
2023-04-29T07:51:32.624Z,39.05
2023-04-29T07:52:32.612Z,39.05
2023-04-29T07:53:32.605Z,37.92
2023-04-29T07:54:32.584Z,37.87
2023-04-29T07:55:32.558Z,37.87
2023-04-29T07:56:32.555Z,38.08
2023-04-29T07:57:32.548Z,37.97
2023-04-29T07:58:32.527Z,37.92
2023-04-29T07:59:32.527Z,37.87
2023-04-29T08:00:32.706Z,36.68
2023-04-29T08:01:32.494Z,36.63
2023-04-29T08:02:32.601Z,36.68
2023-04-29T08:03:32.567Z,36.90
2023-04-29T08:04:32.725Z,36.74
2023-04-29T08:05:33.020Z,36.68
2023-04-29T08:06:32.417Z,35.72
2023-04-29T08:07:32.404Z,35.88
2023-04-29T08:08:32.397Z,35.72
2023-04-29T08:09:32.386Z,35.72
2023-04-29T08:10:32.375Z,35.66
2023-04-29T08:11:32.354Z,35.72
2023-04-29T08:12:32.339Z,35.66
2023-04-29T08:13:32.332Z,35.88
2023-04-29T08:14:32.315Z,35.50
2023-04-29T08:15:32.312Z,35.61
2023-04-29T08:16:32.323Z,34.48
2023-04-29T08:17:32.309Z,35.83
2023-04-29T08:18:32.433Z,34.43
2023-04-29T08:19:32.248Z,34.64
2023-04-29T08:20:32.375Z,34.54
2023-04-29T08:21:32.217Z,34.54
2023-04-29T08:22:32.222Z,34.43
2023-04-29T08:23:32.207Z,34.48
2023-04-29T08:24:32.188Z,34.75
2023-04-29T08:25:32.165Z,34.48
2023-04-29T08:26:32.604Z,34.54
2023-04-29T08:27:32.150Z,34.54
2023-04-29T08:28:32.129Z,34.54
2023-04-29T08:29:32.117Z,34.54
2023-04-29T08:30:32.114Z,34.54
2023-04-29T08:31:32.120Z,33.30
2023-04-29T08:32:32.212Z,33.35
2023-04-29T08:33:32.058Z,33.30
2023-04-29T08:34:32.054Z,33.30
2023-04-29T08:35:32.043Z,33.09
2023-04-29T08:36:32.064Z,33.30
2023-04-29T08:37:32.107Z,33.41
2023-04-29T08:38:32.007Z,33.35
2023-04-29T08:39:32.042Z,33.35
2023-04-29T08:40:31.968Z,33.30
2023-04-29T08:41:31.961Z,33.35
2023-04-29T08:42:32.046Z,33.03
2023-04-29T08:43:31.928Z,31.74
2023-04-29T08:44:31.920Z,33.30
2023-04-29T08:45:31.933Z,33.35
2023-04-29T08:46:31.944Z,33.30
2023-04-29T08:47:32.071Z,33.35
2023-04-29T08:48:31.936Z,32.33
2023-04-29T08:49:31.857Z,32.44
2023-04-29T08:50:32.047Z,32.39
2023-04-29T08:51:32.041Z,32.39
2023-04-29T08:52:31.833Z,32.50
2023-04-29T08:53:32.052Z,32.33
2023-04-29T08:54:31.839Z,32.33
2023-04-29T08:55:31.929Z,32.39
2023-04-29T08:56:31.761Z,32.23
2023-04-29T08:57:31.817Z,32.55
2023-04-29T08:58:31.731Z,32.33
2023-04-29T08:59:31.774Z,32.44
2023-04-29T09:00:32.055Z,32.39
2023-04-29T09:01:31.711Z,32.33
2023-04-29T09:02:31.834Z,32.39
2023-04-29T09:03:31.998Z,31.21
2023-04-29T09:04:31.689Z,31.21
2023-04-29T09:05:31.647Z,32.39
2023-04-29T09:06:31.629Z,32.60
2023-04-29T09:07:31.618Z,32.33
2023-04-29T09:08:31.624Z,31.21
2023-04-29T09:09:31.588Z,31.21
2023-04-29T09:10:31.586Z,32.33
2023-04-29T09:11:31.582Z,31.15
2023-04-29T09:12:31.551Z,32.39
2023-04-29T09:13:31.540Z,31.15
2023-04-29T09:14:31.523Z,31.15
2023-04-29T09:15:31.517Z,32.55
2023-04-29T09:16:31.540Z,31.15
2023-04-29T09:17:31.551Z,31.21
2023-04-29T09:18:31.475Z,31.37
2023-04-29T09:19:31.466Z,30.94
2023-04-29T09:20:31.460Z,31.04
2023-04-29T09:21:31.435Z,31.31
2023-04-29T09:22:31.426Z,31.31
2023-04-29T09:23:31.416Z,31.26
2023-04-29T09:24:31.438Z,31.26
2023-04-29T09:25:31.384Z,31.15
2023-04-29T09:26:31.373Z,31.21
2023-04-29T09:27:31.365Z,31.15
2023-04-29T09:28:31.350Z,31.10
2023-04-29T09:29:31.336Z,31.10
2023-04-29T09:30:31.320Z,31.10
2023-04-29T09:31:31.315Z,31.21
2023-04-29T09:32:31.334Z,31.15
2023-04-29T09:33:31.362Z,31.15
2023-04-29T09:34:31.270Z,31.15
2023-04-29T09:35:31.257Z,31.21
2023-04-29T09:36:31.246Z,31.21
2023-04-29T09:37:31.235Z,31.21
2023-04-29T09:38:31.221Z,31.26
2023-04-29T09:39:31.210Z,30.62
2023-04-29T09:40:31.215Z,30.72
2023-04-29T09:41:31.179Z,31.21
2023-04-29T09:42:31.168Z,31.15
2023-04-29T09:43:31.162Z,30.13
2023-04-29T09:44:33.902Z,31.15
2023-04-29T09:45:31.135Z,31.15
2023-04-29T09:46:31.191Z,31.21
2023-04-29T09:47:31.138Z,30.99
2023-04-29T09:48:31.088Z,30.13
2023-04-29T09:49:31.075Z,30.24
2023-04-29T09:50:31.064Z,30.19
2023-04-29T09:51:31.056Z,31.21
2023-04-29T09:52:31.040Z,31.21
2023-04-29T09:53:31.029Z,30.13
2023-04-29T09:54:31.019Z,30.67
2023-04-29T09:55:31.011Z,30.08
2023-04-29T09:56:31.040Z,31.15
2023-04-29T09:57:30.990Z,30.19
2023-04-29T09:58:30.982Z,30.19
2023-04-29T09:59:30.948Z,30.19
2023-04-29T10:00:30.935Z,30.29
2023-04-29T10:01:30.971Z,29.97
2023-04-29T10:02:30.972Z,30.13
2023-04-29T10:03:30.948Z,30.19
2023-04-29T10:04:30.926Z,30.24
2023-04-29T10:05:30.877Z,30.19
2023-04-29T10:06:30.859Z,30.19
2023-04-29T10:07:30.847Z,30.24
2023-04-29T10:08:30.831Z,30.19
2023-04-29T10:09:30.825Z,30.13
2023-04-29T10:10:30.810Z,30.13
2023-04-29T10:11:30.793Z,30.24
2023-04-29T10:12:30.801Z,30.19
2023-04-29T10:13:30.766Z,30.13
2023-04-29T10:14:30.752Z,30.19
2023-04-29T10:15:30.745Z,30.24
2023-04-29T10:16:30.845Z,30.24
2023-04-29T10:17:30.715Z,30.19
2023-04-29T10:18:30.719Z,30.24
2023-04-29T10:19:30.687Z,30.40
2023-04-29T10:20:30.682Z,30.40
2023-04-29T10:21:30.664Z,30.35
2023-04-29T10:22:30.654Z,30.13
2023-04-29T10:23:30.642Z,30.24
2023-04-29T10:24:30.624Z,30.19
2023-04-29T10:25:30.619Z,30.45
2023-04-29T10:26:30.594Z,30.29
2023-04-29T10:27:30.589Z,30.19
2023-04-29T10:28:30.600Z,30.24
2023-04-29T10:29:30.557Z,30.24
2023-04-29T10:30:30.560Z,30.24
2023-04-29T10:31:30.634Z,30.24
2023-04-29T10:32:37.006Z,30.19
2023-04-29T10:33:31.559Z,30.19
2023-04-29T10:34:30.496Z,30.19
2023-04-29T10:35:30.493Z,30.19
2023-04-29T10:36:30.527Z,30.13
2023-04-29T10:37:30.458Z,29.76
2023-04-29T10:38:30.517Z,30.13
2023-04-29T10:39:30.451Z,30.13
2023-04-29T10:40:30.435Z,30.24
2023-04-29T10:41:30.416Z,30.13
2023-04-29T10:42:30.412Z,30.19
2023-04-29T10:43:30.445Z,29.65
2023-04-29T10:44:30.510Z,30.24
2023-04-29T10:45:30.351Z,30.24
2023-04-29T10:46:30.365Z,30.19
2023-04-29T10:47:30.399Z,30.29
2023-04-29T10:48:30.325Z,30.19
2023-04-29T10:49:30.307Z,30.45
2023-04-29T10:50:30.289Z,30.19
2023-04-29T10:51:30.277Z,30.45
2023-04-29T10:52:30.264Z,30.19
2023-04-29T10:53:30.252Z,29.59
2023-04-29T10:54:30.235Z,29.59
2023-04-29T10:55:30.230Z,30.29
2023-04-29T10:56:30.207Z,30.19
2023-04-29T10:57:30.206Z,30.24
2023-04-29T10:58:30.181Z,29.81
2023-04-29T10:59:30.186Z,30.19
2023-04-29T11:00:30.174Z,29.54
2023-04-29T11:01:30.228Z,30.13
2023-04-29T11:02:30.189Z,29.38
2023-04-29T11:03:30.253Z,29.59
2023-04-29T11:04:30.131Z,29.81
2023-04-29T11:05:30.108Z,30.24
2023-04-29T11:06:30.088Z,29.59
2023-04-29T11:07:30.073Z,29.59
2023-04-29T11:08:30.055Z,29.65
2023-04-29T11:09:30.051Z,29.38
2023-04-29T11:10:30.040Z,29.70
2023-04-29T11:11:30.020Z,29.65
2023-04-29T11:12:30.008Z,30.29
2023-04-29T11:13:30.007Z,29.59
2023-04-29T11:14:29.976Z,29.65
2023-04-29T11:15:29.966Z,29.43
2023-04-29T11:16:30.054Z,29.70
2023-04-29T11:17:29.980Z,29.54
2023-04-29T11:18:29.934Z,29.54
2023-04-29T11:19:29.921Z,29.76
2023-04-29T11:20:29.899Z,29.65
2023-04-29T11:21:29.887Z,29.59
2023-04-29T11:22:29.875Z,29.59
2023-04-29T11:23:29.868Z,29.70
2023-04-29T11:24:29.854Z,29.49
2023-04-29T11:25:29.867Z,29.54
2023-04-29T11:26:29.825Z,29.59
2023-04-29T11:27:29.816Z,29.59
2023-04-29T11:28:29.820Z,29.65
2023-04-29T11:29:29.783Z,29.65
2023-04-29T11:30:29.771Z,29.54
2023-04-29T11:31:29.864Z,29.70
2023-04-29T11:32:30.001Z,29.59
2023-04-29T11:33:30.014Z,29.54
2023-04-29T11:34:29.727Z,29.59
2023-04-29T11:35:29.860Z,29.65
2023-04-29T11:36:29.692Z,29.59
2023-04-29T11:37:29.684Z,29.54
2023-04-29T11:38:29.669Z,30.19
2023-04-29T11:39:29.667Z,29.76
2023-04-29T11:40:29.658Z,29.43
2023-04-29T11:41:29.643Z,29.76
2023-04-29T11:42:29.623Z,29.86
2023-04-29T11:43:29.623Z,30.19
2023-04-29T11:44:29.597Z,29.86
2023-04-29T11:45:29.585Z,30.02
2023-04-29T11:46:29.647Z,29.59
2023-04-29T11:47:29.680Z,29.49
2023-04-29T11:48:29.586Z,29.92
2023-04-29T11:49:29.541Z,29.49
2023-04-29T11:50:29.530Z,30.13
2023-04-29T11:51:29.507Z,30.24
2023-04-29T11:52:29.548Z,30.13
2023-04-29T11:53:29.480Z,29.65
2023-04-29T11:54:29.496Z,30.24
2023-04-29T11:55:29.464Z,30.45
2023-04-29T11:56:29.444Z,30.19
2023-04-29T11:57:29.435Z,30.19
2023-04-29T11:58:29.412Z,29.65
2023-04-29T11:59:29.415Z,30.24
2023-04-29T12:00:29.386Z,29.65
2023-04-29T12:01:29.373Z,30.19
2023-04-29T12:02:29.501Z,30.24
2023-04-29T12:03:29.545Z,30.19
2023-04-29T12:04:29.567Z,30.24
2023-04-29T12:05:29.359Z,30.24
2023-04-29T12:06:29.310Z,30.19
2023-04-29T12:07:29.303Z,30.13
2023-04-29T12:08:29.277Z,30.19
2023-04-29T12:09:29.271Z,30.24
2023-04-29T12:10:29.259Z,30.19
2023-04-29T12:11:29.277Z,30.19
2023-04-29T12:12:29.313Z,30.19
2023-04-29T12:13:29.221Z,30.19
2023-04-29T12:14:29.212Z,30.24
2023-04-29T12:15:29.197Z,30.56
2023-04-29T12:16:29.391Z,30.02
2023-04-29T12:17:29.209Z,30.24
2023-04-29T12:18:29.152Z,29.92
2023-04-29T12:19:29.143Z,30.19
2023-04-29T12:20:29.153Z,30.19
2023-04-29T12:21:29.118Z,30.24
2023-04-29T12:22:29.114Z,30.24
2023-04-29T12:23:29.094Z,30.24
2023-04-29T12:24:29.080Z,30.19
2023-04-29T12:25:29.067Z,30.02
2023-04-29T12:26:29.053Z,30.24
2023-04-29T12:27:29.053Z,30.24
2023-04-29T12:28:29.027Z,30.24
2023-04-29T12:29:29.015Z,30.13
2023-04-29T12:30:29.001Z,30.19
2023-04-29T12:31:29.010Z,30.19
2023-04-29T12:32:29.004Z,30.45
2023-04-29T12:33:28.989Z,30.19
2023-04-29T12:34:28.955Z,30.19
2023-04-29T12:35:28.956Z,30.24
2023-04-29T12:36:29.003Z,30.02
2023-04-29T12:37:28.915Z,30.67
2023-04-29T12:38:29.102Z,30.24
2023-04-29T12:39:28.951Z,29.65
2023-04-29T12:40:30.254Z,29.54
2023-04-29T12:41:28.850Z,30.13
2023-04-29T12:42:28.843Z,29.65
2023-04-29T12:43:28.829Z,29.92
2023-04-29T12:44:29.054Z,30.29
2023-04-29T12:45:28.802Z,30.19
2023-04-29T12:46:28.842Z,29.65
2023-04-29T12:47:28.806Z,30.19
2023-04-29T12:48:31.580Z,30.51
2023-04-29T12:49:28.759Z,30.24
2023-04-29T12:50:28.739Z,30.19
2023-04-29T12:51:28.733Z,30.29
2023-04-29T12:52:28.730Z,29.86